sensor_id;sensor_type;location;lat;lon;timestamp;temperature;humidity
63325;SHT31;49451;52.390;13.028;2024-01-15T04:03:48;2.33;87.21
63325;SHT31;49451;52.390;13.028;2024-01-15T04:06:13;2.29;86.81
63325;SHT31;49451;52.390;13.028;2024-01-15T04:08:38;2.34;86.67
63325;SHT31;49451;52.390;13.028;2024-01-15T04:11:04;2.29;86.47
63325;SHT31;49451;52.390;13.028;2024-01-15T04:13:32;2.38;86.19
63325;SHT31;49451;52.390;13.028;2024-01-15T04:15:58;2.40;86.24
63325;SHT31;49451;52.390;13.028;2024-01-15T04:18:23;2.38;86.14
63325;SHT31;49451;52.390;13.028;2024-01-15T04:20:48;2.42;85.92
63325;SHT31;49451;52.390;13.028;2024-01-15T04:23:14;2.44;85.76
63325;SHT31;49451;52.390;13.028;2024-01-15T04:25:39;2.40;85.28
63325;SHT31;49451;52.390;13.028;2024-01-15T04:28:08;2.36;85.49
63325;SHT31;49451;52.390;13.028;2024-01-15T04:30:33;2.26;85.71
63325;SHT31;49451;52.390;13.028;2024-01-15T04:32:59;2.29;85.78
63325;SHT31;49451;52.390;13.028;2024-01-15T04:35:24;2.38;85.84
63325;SHT31;49451;52.390;13.028;2024-01-15T04:37:49;2.27;85.74
63325;SHT31;49451;52.390;13.028;2024-01-15T04:40:15;2.34;85.43
63325;SHT31;49451;52.390;13.028;2024-01-15T04:42:40;2.47;85.32
63325;SHT31;49451;52.390;13.028;2024-01-15T04:45:06;2.45;85.53
63325;SHT31;49451;52.390;13.028;2024-01-15T04:47:31;2.37;85.51
63325;SHT31;49451;52.390;13.028;2024-01-15T04:49:56;2.36;85.60
63325;SHT31;49451;52.390;13.028;2024-01-15T04:52:22;2.34;85.22
63325;SHT31;49451;52.390;13.028;2024-01-15T04:54:48;2.37;85.36
63325;SHT31;49451;52.390;13.028;2024-01-15T04:57:14;2.41;85.45
63325;SHT31;49451;52.390;13.028;2024-01-15T04:59:40;2.38;85.53
63325;SHT31;49451;52.390;13.028;2024-01-15T05:02:05;2.40;85.85
63325;SHT31;49451;52.390;13.028;2024-01-15T05:04:31;2.50;85.58
63325;SHT31;49451;52.390;13.028;2024-01-15T05:06:56;2.51;85.58
63325;SHT31;49451;52.390;13.028;2024-01-15T05:09:22;2.52;85.75
63325;SHT31;49451;52.390;13.028;2024-01-15T05:11:47;2.51;85.78
63325;SHT31;49451;52.390;13.028;2024-01-15T05:14:12;2.55;85.64
63325;SHT31;49451;52.390;13.028;2024-01-15T05:16:39;2.54;85.85
63325;SHT31;49451;52.390;13.028;2024-01-15T05:19:04;2.50;85.78
63325;SHT31;49451;52.390;13.028;2024-01-15T05:21:29;2.47;85.87
63325;SHT31;49451;52.390;13.028;2024-01-15T05:23:55;2.51;85.68
63325;SHT31;49451;52.390;13.028;2024-01-15T05:26:21;2.54;85.70
63325;SHT31;49451;52.390;13.028;2024-01-15T05:28:47;2.45;85.66
63325;SHT31;49451;52.390;13.028;2024-01-15T05:31:12;2.54;85.79
63325;SHT31;49451;52.390;13.028;2024-01-15T05:33:37;2.50;85.83
63325;SHT31;49451;52.390;13.028;2024-01-15T05:36:03;2.61;86.05
63325;SHT31;49451;52.390;13.028;2024-01-15T05:38:28;2.57;85.65
63325;SHT31;49451;52.390;13.028;2024-01-15T05:40:54;2.50;85.84
63325;SHT31;49451;52.390;13.028;2024-01-15T05:43:19;2.58;86.00
63325;SHT31;49451;52.390;13.028;2024-01-15T05:45:44;2.52;86.72
63325;SHT31;49451;52.390;13.028;2024-01-15T05:48:11;2.41;87.33
63325;SHT31;49451;52.390;13.028;2024-01-15T05:50:36;2.36;87.45
63325;SHT31;49451;52.390;13.028;2024-01-15T05:53:02;2.38;87.29
63325;SHT31;49451;52.390;13.028;2024-01-15T05:55:27;2.50;86.85
63325;SHT31;49451;52.390;13.028;2024-01-15T05:57:53;2.54;86.77
63325;SHT31;49451;52.390;13.028;2024-01-15T06:00:18;2.54;86.26
63325;SHT31;49451;52.390;13.028;2024-01-15T06:02:44;2.50;86.64
63325;SHT31;49451;52.390;13.028;2024-01-15T06:05:09;2.44;86.47
63325;SHT31;49451;52.390;13.028;2024-01-15T06:07:35;2.48;86.36
63325;SHT31;49451;52.390;13.028;2024-01-15T06:10:01;2.57;86.22
63325;SHT31;49451;52.390;13.028;2024-01-15T06:12:27;2.54;86.16
63325;SHT31;49451;52.390;13.028;2024-01-15T06:14:53;2.58;86.36
63325;SHT31;49451;52.390;13.028;2024-01-15T06:17:18;2.54;86.32
63325;SHT31;49451;52.390;13.028;2024-01-15T06:19:44;2.52;86.75
63325;SHT31;49451;52.390;13.028;2024-01-15T06:22:09;2.58;86.39
63325;SHT31;49451;52.390;13.028;2024-01-15T06:24:34;2.41;87.06
63325;SHT31;49451;52.390;13.028;2024-01-15T06:27:00;2.48;87.74
63325;SHT31;49451;52.390;13.028;2024-01-15T06:29:25;2.36;88.76
63325;SHT31;49451;52.390;13.028;2024-01-15T06:31:51;2.36;88.92
63325;SHT31;49451;52.390;13.028;2024-01-15T06:34:17;2.41;88.31
63325;SHT31;49451;52.390;13.028;2024-01-15T06:36:42;2.47;87.89
63325;SHT31;49451;52.390;13.028;2024-01-15T06:39:08;2.45;87.46
63325;SHT31;49451;52.390;13.028;2024-01-15T06:41:33;2.48;87.18
63325;SHT31;49451;52.390;13.028;2024-01-15T06:43:58;2.51;87.24
63325;SHT31;49451;52.390;13.028;2024-01-15T06:46:24;2.44;86.80
63325;SHT31;49451;52.390;13.028;2024-01-15T06:48:50;2.45;86.79
63325;SHT31;49451;52.390;13.028;2024-01-15T06:51:15;2.57;86.38
63325;SHT31;49451;52.390;13.028;2024-01-15T06:53:41;2.61;86.00
63325;SHT31;49451;52.390;13.028;2024-01-15T06:56:06;2.55;86.24
63325;SHT31;49451;52.390;13.028;2024-01-15T06:58:32;2.44;86.19
63325;SHT31;49451;52.390;13.028;2024-01-15T07:00:57;2.48;85.78
63325;SHT31;49451;52.390;13.028;2024-01-15T07:03:23;2.50;85.98
63325;SHT31;49451;52.390;13.028;2024-01-15T07:05:48;2.48;86.07
63325;SHT31;49451;52.390;13.028;2024-01-15T07:08:17;2.48;85.61
63325;SHT31;49451;52.390;13.028;2024-01-15T07:10:43;2.55;85.57
63325;SHT31;49451;52.390;13.028;2024-01-15T07:13:09;2.47;85.74
63325;SHT31;49451;52.390;13.028;2024-01-15T07:15:45;2.51;85.78
63325;SHT31;49451;52.390;13.028;2024-01-15T07:18:12;2.52;85.67
63325;SHT31;49451;52.390;13.028;2024-01-15T07:20:38;2.52;85.70
63325;SHT31;49451;52.390;13.028;2024-01-15T07:23:06;2.61;85.63
63325;SHT31;49451;52.390;13.028;2024-01-15T07:25:32;2.58;85.89
63325;SHT31;49451;52.390;13.028;2024-01-15T07:27:58;2.57;85.99
63325;SHT31;49451;52.390;13.028;2024-01-15T07:30:23;2.60;86.39
63325;SHT31;49451;52.390;13.028;2024-01-15T07:32:49;2.68;86.08
63325;SHT31;49451;52.390;13.028;2024-01-15T07:35:14;3.20;88.03
63325;SHT31;49451;52.390;13.028;2024-01-15T07:37:40;3.19;85.53
63325;SHT31;49451;52.390;13.028;2024-01-15T07:40:06;2.71;85.38
63325;SHT31;49451;52.390;13.028;2024-01-15T07:42:39;2.74;85.84
63325;SHT31;49451;52.390;13.028;2024-01-15T07:45:05;2.71;85.94
63325;SHT31;49451;52.390;13.028;2024-01-15T07:47:31;2.71;86.26
63325;SHT31;49451;52.390;13.028;2024-01-15T07:49:57;2.68;85.93
63325;SHT31;49451;52.390;13.028;2024-01-15T07:52:22;2.64;86.12
63325;SHT31;49451;52.390;13.028;2024-01-15T07:54:47;2.60;86.44
63325;SHT31;49451;52.390;13.028;2024-01-15T07:57:13;2.71;86.21
63325;SHT31;49451;52.390;13.028;2024-01-15T07:59:38;2.57;86.41
63325;SHT31;49451;52.390;13.028;2024-01-15T08:02:03;2.68;86.45
63325;SHT31;49451;52.390;13.028;2024-01-15T08:04:29;2.57;86.69
63325;SHT31;49451;52.390;13.028;2024-01-15T08:06:54;2.64;86.19
63325;SHT31;49451;52.390;13.028;2024-01-15T08:09:21;2.52;86.66
63325;SHT31;49451;52.390;13.028;2024-01-15T08:11:46;2.72;86.30
63325;SHT31;49451;52.390;13.028;2024-01-15T08:14:12;2.61;86.15
63325;SHT31;49451;52.390;13.028;2024-01-15T08:16:38;2.64;86.15
63325;SHT31;49451;52.390;13.028;2024-01-15T08:19:04;2.72;85.90
63325;SHT31;49451;52.390;13.028;2024-01-15T08:21:29;2.60;86.29
63325;SHT31;49451;52.390;13.028;2024-01-15T08:23:59;2.55;86.54
63325;SHT31;49451;52.390;13.028;2024-01-15T08:26:25;2.72;86.03
63325;SHT31;49451;52.390;13.028;2024-01-15T08:28:51;2.78;85.62
63325;SHT31;49451;52.390;13.028;2024-01-15T08:31:16;2.79;86.32
63325;SHT31;49451;52.390;13.028;2024-01-15T08:33:42;2.79;86.01
63325;SHT31;49451;52.390;13.028;2024-01-15T08:36:09;2.91;85.54
63325;SHT31;49451;52.390;13.028;2024-01-15T08:38:35;2.65;86.38
63325;SHT31;49451;52.390;13.028;2024-01-15T08:41:01;2.78;86.23
63325;SHT31;49451;52.390;13.028;2024-01-15T08:43:27;2.71;86.33
63325;SHT31;49451;52.390;13.028;2024-01-15T08:45:59;2.89;86.26
63325;SHT31;49451;52.390;13.028;2024-01-15T08:48:27;2.66;86.77
63325;SHT31;49451;52.390;13.028;2024-01-15T08:50:54;2.71;87.08
63325;SHT31;49451;52.390;13.028;2024-01-15T08:53:20;2.75;86.71
63325;SHT31;49451;52.390;13.028;2024-01-15T08:55:46;2.77;86.92
63325;SHT31;49451;52.390;13.028;2024-01-15T08:58:12;2.82;86.83
63325;SHT31;49451;52.390;13.028;2024-01-15T09:00:43;2.75;86.88
63325;SHT31;49451;52.390;13.028;2024-01-15T09:03:08;2.75;86.76
63325;SHT31;49451;52.390;13.028;2024-01-15T09:05:34;2.75;86.87
63325;SHT31;49451;52.390;13.028;2024-01-15T09:08:00;2.69;87.06
63325;SHT31;49451;52.390;13.028;2024-01-15T09:10:58;2.72;87.06
63325;SHT31;49451;52.390;13.028;2024-01-15T09:13:49;2.74;87.24
63325;SHT31;49451;52.390;13.028;2024-01-15T09:16:15;2.69;87.24
63325;SHT31;49451;52.390;13.028;2024-01-15T09:18:40;2.82;86.76
63325;SHT31;49451;52.390;13.028;2024-01-15T09:21:06;2.74;86.92
63325;SHT31;49451;52.390;13.028;2024-01-15T09:23:31;2.79;86.67
63325;SHT31;49451;52.390;13.028;2024-01-15T09:25:57;2.89;86.27
63325;SHT31;49451;52.390;13.028;2024-01-15T09:28:25;2.86;86.16
63325;SHT31;49451;52.390;13.028;2024-01-15T09:30:51;2.92;86.12
63325;SHT31;49451;52.390;13.028;2024-01-15T09:33:16;2.95;85.99
63325;SHT31;49451;52.390;13.028;2024-01-15T09:35:42;2.99;85.99
63325;SHT31;49451;52.390;13.028;2024-01-15T09:38:07;3.05;85.95
63325;SHT31;49451;52.390;13.028;2024-01-15T09:40:36;2.86;85.77
63325;SHT31;49451;52.390;13.028;2024-01-15T09:43:03;2.95;86.27
63325;SHT31;49451;52.390;13.028;2024-01-15T09:45:30;2.92;86.15
63325;SHT31;49451;52.390;13.028;2024-01-15T09:47:55;2.89;86.27
63325;SHT31;49451;52.390;13.028;2024-01-15T09:50:21;2.89;86.45
63325;SHT31;49451;52.390;13.028;2024-01-15T09:52:47;2.93;86.94
63325;SHT31;49451;52.390;13.028;2024-01-15T09:55:13;2.91;86.52
63325;SHT31;49451;52.390;13.028;2024-01-15T09:57:41;3.02;86.43
63325;SHT31;49451;52.390;13.028;2024-01-15T10:00:17;3.00;86.64
63325;SHT31;49451;52.390;13.028;2024-01-15T10:02:46;2.98;86.40
63325;SHT31;49451;52.390;13.028;2024-01-15T10:05:12;2.99;86.08
63325;SHT31;49451;52.390;13.028;2024-01-15T10:07:37;3.02;86.34
63325;SHT31;49451;52.390;13.028;2024-01-15T10:10:05;3.06;85.61
63325;SHT31;49451;52.390;13.028;2024-01-15T10:12:30;3.00;86.21
63325;SHT31;49451;52.390;13.028;2024-01-15T10:14:56;3.00;86.06
63325;SHT31;49451;52.390;13.028;2024-01-15T10:17:21;3.07;86.01
63325;SHT31;49451;52.390;13.028;2024-01-15T10:19:47;2.95;85.92
63325;SHT31;49451;52.390;13.028;2024-01-15T10:22:15;2.95;85.82
63325;SHT31;49451;52.390;13.028;2024-01-15T10:24:41;3.07;85.64
63325;SHT31;49451;52.390;13.028;2024-01-15T10:27:11;3.27;85.40
63325;SHT31;49451;52.390;13.028;2024-01-15T10:29:41;3.22;85.32
63325;SHT31;49451;52.390;13.028;2024-01-15T10:32:09;3.37;85.10
63325;SHT31;49451;52.390;13.028;2024-01-15T10:34:40;3.37;84.95
63325;SHT31;49451;52.390;13.028;2024-01-15T10:37:09;3.41;85.24
63325;SHT31;49451;52.390;13.028;2024-01-15T10:39:35;3.50;84.80
63325;SHT31;49451;52.390;13.028;2024-01-15T10:42:03;3.65;84.41
63325;SHT31;49451;52.390;13.028;2024-01-15T10:44:52;3.38;84.93
63325;SHT31;49451;52.390;13.028;2024-01-15T10:47:22;3.41;85.02
63325;SHT31;49451;52.390;13.028;2024-01-15T10:49:51;3.45;85.04
63325;SHT31;49451;52.390;13.028;2024-01-15T10:52:18;3.38;84.92
63325;SHT31;49451;52.390;13.028;2024-01-15T10:54:43;3.30;86.03
63325;SHT31;49451;52.390;13.028;2024-01-15T10:57:10;3.17;86.84
63325;SHT31;49451;52.390;13.028;2024-01-15T10:59:36;3.16;87.89
63325;SHT31;49451;52.390;13.028;2024-01-15T11:02:02;3.03;88.88
63325;SHT31;49451;52.390;13.028;2024-01-15T11:04:28;2.96;89.76
63325;SHT31;49451;52.390;13.028;2024-01-15T11:06:54;3.15;89.33
63325;SHT31;49451;52.390;13.028;2024-01-15T11:09:25;3.38;89.20
63325;SHT31;49451;52.390;13.028;2024-01-15T11:12:09;4.03;87.94
63325;SHT31;49451;52.390;13.028;2024-01-15T11:14:40;3.89;88.11
63325;SHT31;49451;52.390;13.028;2024-01-15T11:17:09;4.38;86.36
63325;SHT31;49451;52.390;13.028;2024-01-15T11:22:19;3.40;89.83
63325;SHT31;49451;52.390;13.028;2024-01-15T11:25:03;3.60;88.84
63325;SHT31;49451;52.390;13.028;2024-01-15T11:27:51;3.61;89.22
63325;SHT31;49451;52.390;13.028;2024-01-15T11:30:19;3.70;88.53
63325;SHT31;49451;52.390;13.028;2024-01-15T11:32:50;3.61;88.21
63325;SHT31;49451;52.390;13.028;2024-01-15T11:35:16;3.40;89.54
63325;SHT31;49451;52.390;13.028;2024-01-15T11:37:57;3.19;90.18
63325;SHT31;49451;52.390;13.028;2024-01-15T11:42:59;3.16;89.40
63325;SHT31;49451;52.390;13.028;2024-01-15T11:45:24;3.17;89.96
63325;SHT31;49451;52.390;13.028;2024-01-15T11:50:46;3.24;89.56
63325;SHT31;49451;52.390;13.028;2024-01-15T11:53:16;3.13;89.81
63325;SHT31;49451;52.390;13.028;2024-01-15T11:55:44;2.99;89.81
63325;SHT31;49451;52.390;13.028;2024-01-15T11:58:11;3.06;89.76
63325;SHT31;49451;52.390;13.028;2024-01-15T12:00:40;3.07;89.11
63325;SHT31;49451;52.390;13.028;2024-01-15T12:03:07;2.93;89.52
63325;SHT31;49451;52.390;13.028;2024-01-15T12:05:32;2.91;89.74
63325;SHT31;49451;52.390;13.028;2024-01-15T12:08:32;2.91;89.59
63325;SHT31;49451;52.390;13.028;2024-01-15T12:11:21;2.95;89.54
63325;SHT31;49451;52.390;13.028;2024-01-15T12:14:06;2.98;89.74
63325;SHT31;49451;52.390;13.028;2024-01-15T12:16:32;3.02;89.52
63325;SHT31;49451;52.390;13.028;2024-01-15T12:18:57;2.99;89.48
63325;SHT31;49451;52.390;13.028;2024-01-15T12:21:26;2.91;90.04
63325;SHT31;49451;52.390;13.028;2024-01-15T12:23:51;2.81;90.53
63325;SHT31;49451;52.390;13.028;2024-01-15T12:26:17;2.77;91.51
63325;SHT31;49451;52.390;13.028;2024-01-15T12:28:44;2.57;92.75
63325;SHT31;49451;52.390;13.028;2024-01-15T12:31:10;2.36;93.51
63325;SHT31;49451;52.390;13.028;2024-01-15T12:33:36;2.47;93.25
63325;SHT31;49451;52.390;13.028;2024-01-15T12:36:04;2.42;93.50
63325;SHT31;49451;52.390;13.028;2024-01-15T12:38:29;2.24;93.84
63325;SHT31;49451;52.390;13.028;2024-01-15T12:40:55;2.31;94.22
63325;SHT31;49451;52.390;13.028;2024-01-15T12:43:20;2.45;93.57
63325;SHT31;49451;52.390;13.028;2024-01-15T12:45:46;2.47;93.54
63325;SHT31;49451;52.390;13.028;2024-01-15T12:48:11;2.64;93.03
63325;SHT31;49451;52.390;13.028;2024-01-15T12:50:38;2.48;93.03
63325;SHT31;49451;52.390;13.028;2024-01-15T12:53:04;2.64;92.22
63325;SHT31;49451;52.390;13.028;2024-01-15T12:55:29;2.62;92.18
63325;SHT31;49451;52.390;13.028;2024-01-15T12:57:55;2.57;92.08
63325;SHT31;49451;52.390;13.028;2024-01-15T13:00:20;2.71;91.97
63325;SHT31;49451;52.390;13.028;2024-01-15T13:03:13;2.58;92.25
63325;SHT31;49451;52.390;13.028;2024-01-15T13:05:39;2.55;92.03
63325;SHT31;49451;52.390;13.028;2024-01-15T13:08:05;2.65;91.42
63325;SHT31;49451;52.390;13.028;2024-01-15T13:10:31;2.62;91.64
63325;SHT31;49451;52.390;13.028;2024-01-15T13:12:57;2.61;91.10
63325;SHT31;49451;52.390;13.028;2024-01-15T13:15:22;2.62;91.55
63325;SHT31;49451;52.390;13.028;2024-01-15T13:17:47;2.55;91.78
63325;SHT31;49451;52.390;13.028;2024-01-15T13:20:13;2.61;91.45
63325;SHT31;49451;52.390;13.028;2024-01-15T13:22:38;2.62;91.41
63325;SHT31;49451;52.390;13.028;2024-01-15T13:25:05;2.58;91.85
63325;SHT31;49451;52.390;13.028;2024-01-15T13:27:32;2.58;92.11
63325;SHT31;49451;52.390;13.028;2024-01-15T13:30:00;2.64;91.98
63325;SHT31;49451;52.390;13.028;2024-01-15T13:32:27;2.58;92.31
63325;SHT31;49451;52.390;13.028;2024-01-15T13:34:54;2.66;91.84
63325;SHT31;49451;52.390;13.028;2024-01-15T13:37:20;2.68;92.02
63325;SHT31;49451;52.390;13.028;2024-01-15T13:39:47;2.58;91.99
63325;SHT31;49451;52.390;13.028;2024-01-15T13:42:12;2.47;92.82
63325;SHT31;49451;52.390;13.028;2024-01-15T13:44:47;2.45;92.98
63325;SHT31;49451;52.390;13.028;2024-01-15T13:47:12;2.44;92.60
63325;SHT31;49451;52.390;13.028;2024-01-15T13:49:38;2.48;92.64
63325;SHT31;49451;52.390;13.028;2024-01-15T13:52:04;2.52;92.05
63325;SHT31;49451;52.390;13.028;2024-01-15T13:54:33;2.42;92.46
63325;SHT31;49451;52.390;13.028;2024-01-15T13:57:00;2.57;91.89
63325;SHT31;49451;52.390;13.028;2024-01-15T13:59:33;2.58;91.66
63325;SHT31;49451;52.390;13.028;2024-01-15T14:01:59;2.52;91.75
63325;SHT31;49451;52.390;13.028;2024-01-15T14:04:25;2.51;91.39
63325;SHT31;49451;52.390;13.028;2024-01-15T14:06:52;2.60;91.65
63325;SHT31;49451;52.390;13.028;2024-01-15T14:09:18;2.62;91.30
63325;SHT31;49451;52.390;13.028;2024-01-15T14:11:43;2.61;91.75
63325;SHT31;49451;52.390;13.028;2024-01-15T14:14:09;2.61;91.43
63325;SHT31;49451;52.390;13.028;2024-01-15T14:16:38;2.65;91.25
63325;SHT31;49451;52.390;13.028;2024-01-15T14:19:16;2.62;90.98
63325;SHT31;49451;52.390;13.028;2024-01-15T14:21:42;2.51;90.80
63325;SHT31;49451;52.390;13.028;2024-01-15T14:24:07;2.37;91.33
63325;SHT31;49451;52.390;13.028;2024-01-15T14:26:34;2.45;91.39
63325;SHT31;49451;52.390;13.028;2024-01-15T14:29:03;2.55;91.24
63325;SHT31;49451;52.390;13.028;2024-01-15T14:31:28;2.51;91.31
63325;SHT31;49451;52.390;13.028;2024-01-15T14:33:54;2.42;91.52
63325;SHT31;49451;52.390;13.028;2024-01-15T14:36:23;2.51;91.78
63325;SHT31;49451;52.390;13.028;2024-01-15T14:38:49;2.50;92.06
63325;SHT31;49451;52.390;13.028;2024-01-15T14:41:14;2.50;92.33
63325;SHT31;49451;52.390;13.028;2024-01-15T14:43:42;2.41;92.17
63325;SHT31;49451;52.390;13.028;2024-01-15T14:46:07;2.14;93.56
63325;SHT31;49451;52.390;13.028;2024-01-15T14:48:32;2.31;93.52
63325;SHT31;49451;52.390;13.028;2024-01-15T14:50:58;2.22;94.01
63325;SHT31;49451;52.390;13.028;2024-01-15T14:53:23;2.26;93.74
63325;SHT31;49451;52.390;13.028;2024-01-15T14:55:48;2.33;93.44
63325;SHT31;49451;52.390;13.028;2024-01-15T14:58:14;2.31;93.54
63325;SHT31;49451;52.390;13.028;2024-01-15T15:00:40;2.27;93.51
63325;SHT31;49451;52.390;13.028;2024-01-15T15:03:05;2.17;93.77
63325;SHT31;49451;52.390;13.028;2024-01-15T15:05:31;2.29;93.51
63325;SHT31;49451;52.390;13.028;2024-01-15T15:07:57;2.17;93.22
63325;SHT31;49451;52.390;13.028;2024-01-15T15:10:22;2.14;93.84
63325;SHT31;49451;52.390;13.028;2024-01-15T15:12:48;2.20;93.89
63325;SHT31;49451;52.390;13.028;2024-01-15T15:15:13;2.06;93.65
63325;SHT31;49451;52.390;13.028;2024-01-15T15:17:39;2.31;93.33
63325;SHT31;49451;52.390;13.028;2024-01-15T15:20:06;2.30;93.23
63325;SHT31;49451;52.390;13.028;2024-01-15T15:22:32;2.29;93.16
63325;SHT31;49451;52.390;13.028;2024-01-15T15:24:57;2.22;93.39
63325;SHT31;49451;52.390;13.028;2024-01-15T15:27:23;2.34;93.36
63325;SHT31;49451;52.390;13.028;2024-01-15T15:29:48;2.26;93.15
63325;SHT31;49451;52.390;13.028;2024-01-15T15:32:15;2.26;93.63
63325;SHT31;49451;52.390;13.028;2024-01-15T15:34:40;2.29;93.22
63325;SHT31;49451;52.390;13.028;2024-01-15T15:37:06;2.34;93.13
63325;SHT31;49451;52.390;13.028;2024-01-15T15:39:31;2.07;93.73
63325;SHT31;49451;52.390;13.028;2024-01-15T15:41:56;2.26;93.20
63325;SHT31;49451;52.390;13.028;2024-01-15T15:44:22;2.22;93.03
63325;SHT31;49451;52.390;13.028;2024-01-15T15:46:48;2.09;93.66
63325;SHT31;49451;52.390;13.028;2024-01-15T15:49:13;2.19;93.21
63325;SHT31;49451;52.390;13.028;2024-01-15T15:51:40;2.12;93.39
63325;SHT31;49451;52.390;13.028;2024-01-15T15:54:05;2.19;92.95
63325;SHT31;49451;52.390;13.028;2024-01-15T15:56:34;2.26;92.64
63325;SHT31;49451;52.390;13.028;2024-01-15T15:59:06;2.09;92.91
63325;SHT31;49451;52.390;13.028;2024-01-15T16:01:34;2.16;92.73
